Greenville Downtown Airport
KGMU : rendu visible

Aérodrome :











RETROUVEZ-NOUS SUR...

 
LOGIN :

S'inscrire | Disclaimer

   EN    FR    IT 

 









Légende :    VFR   VFR Marginal   IFR   IFR Intensif   IFR Très Intensif
Visi : 
Plafond : 
>= 8 km
>= 3000ft
5 à 8 km
1000 à 3000 ft
1500m à 5 km
500 à 1000 ft
800 à 1500m
200 à 500 ft
< 800m
< 200 ft
Symboles :   Orages  Brouillard  Fortes neiges  Fortes précipitations  Vent > 20 kt






- Altitude de l'aérodrome : 1048 ft


KGMU - Greenville Downtown

DERNIER METAR :
  • 211553Z 16004KT 10SM CLR 13/03 A3030 RMK AO2 SLP259 T01280033

METARs EXPIRÉS :
  • 211453Z 16004KT 10SM CLR 11/03 A3032 RMK AO2 SLP268 T01110028 50008
  • 211353Z 11003KT 10SM CLR 09/04 A3033 RMK AO2 SLP270 T00940039

TAF KGMU
Valide du 21 à 12h jusqu'au 22 à 12h UTC


211130Z 2112/2212 00000KT P6SM BKN250
FM211500 19004KT P6SM BKN250
FM211700 21007KT P6SM BKN250
FM220200 23006KT P6SM SCT120 BKN250



MET'MAP, la Météo Aéronautique d'un coup d'oeil ! - Copyright ORBIFLY Décembre 2007 - Disclaimer

ORBIFLY MET'MAP TEAM :

Programmation & Développement : Alexandra Zaïnal
Conception & Développement : Baudouin d'Aumeries
Co-Programmation & Développement : Marc-Olivier Méhu
Soutien technique & logistique : Manuel Goepfert

Contact : metmap@orbifly.com




SOURCES & CREDITS :

   NOAA       Earth
Advisory